PWSweather.com
Personal Weather Stations
Station Observations
SPRINGSWX
Colorado Springs, CO 80923

Colorado Springs, CO 80923

Lat: 38.926778, Lon: -104.703621

Elevation: 6769

Station Type: Davis Vantage Vue

http://www.cospringsweather.com

Latest ConditionsUpdated 6:20:09 PM MST Sunday, Dec 17, 2017
Currently Today's Max Today's Min Today's Average
Temperature 24.0°F-4.4°C 34.3°F1.3°C 19.0°F-7.2°C 24.8°F-4.0°C
Dew Point 19.3°F-7.1°C 23.8°F-4.6°C 16.7°F-8.5°C 20.1°F-6.6°C
Winds 2.4 mph SW3.9 kmh SW 7.1 mph NNE11.4 kmh NNE - 1.2 mph 1.9 kmh
Wind Gusts 4.0 mph6.4 kmh 11.0 mph17.7 kmh - -
Humidity 82% 93% 64% 83%
Pressure 29.93 in1013.5 mb 29.99 in1015.6 mb 29.86 in1011.2 mb -
Hour Temp Dew Point Humidity Winds Wind Gusts Pressure Precip Precip Rate Daily Precip Total
06:20 PM 24.0°F-4.4°C 19.3°F-7.1°C 82% 2.4 mph SW3.9 kmh SW 4.0 mph6.4 kmh 29.93 in1013.5 mb - 0.00 in0.0 mm 0.00 in0.0 mm
06:15 PM 24.0°F-4.4°C 19.3°F-7.1°C 82% 0.7 mph S1.1 kmh S 2.0 mph3.2 kmh 29.93 in1013.5 mb - 0.00 in0.0 mm 0.00 in0.0 mm
06:10 PM 24.1°F-4.4°C 18.8°F-7.3°C 80% 0.6 mph ESE1.0 kmh ESE 2.0 mph3.2 kmh 29.93 in1013.5 mb - 0.00 in0.0 mm 0.00 in0.0 mm
06:00 PM 24.7°F-4.1°C 19.4°F-7.0°C 80% Calm Calm -- 29.92 in1013.2 mb - 0.00 in0.0 mm 0.00 in0.0 mm
05:50 PM 25.2°F-3.8°C 19.9°F-6.7°C 80% Calm Calm -- 29.93 in1013.5 mb - 0.00 in0.0 mm 0.00 in0.0 mm
05:45 PM 25.4°F-3.7°C 20.1°F-6.6°C 80% Calm Calm -- 29.92 in1013.2 mb - 0.00 in0.0 mm 0.00 in0.0 mm
05:40 PM 25.5°F-3.6°C 20.2°F-6.6°C 80% 0.5 mph SW0.8 kmh SW 1.0 mph1.6 kmh 29.92 in1013.2 mb - 0.00 in0.0 mm 0.00 in0.0 mm
05:30 PM 25.8°F-3.4°C 20.5°F-6.4°C 80% 1.2 mph SSW1.9 kmh SSW 2.0 mph3.2 kmh 29.92 in1013.2 mb - 0.00 in0.0 mm 0.00 in0.0 mm
05:20 PM 26.2°F-3.2°C 20.6°F-6.3°C 79% 0.1 mph S0.2 kmh S -- 29.91 in1012.9 mb - 0.00 in0.0 mm 0.00 in0.0 mm
05:15 PM 26.3°F-3.2°C 20.4°F-6.4°C 78% 0.1 mph S0.2 kmh S -- 29.91 in1012.9 mb - 0.00 in0.0 mm 0.00 in0.0 mm
05:10 PM 26.6°F-3.0°C 20.4°F-6.4°C 77% 0.2 mph S0.3 kmh S 1.0 mph1.6 kmh 29.91 in1012.9 mb - 0.00 in0.0 mm 0.00 in0.0 mm
05:00 PM 27.1°F-2.7°C 20.6°F-6.3°C 76% 0.4 mph S0.6 kmh S 2.0 mph3.2 kmh 29.92 in1013.2 mb - 0.00 in0.0 mm 0.00 in0.0 mm
04:50 PM 27.6°F-2.4°C 21.0°F-6.1°C 76% Calm Calm -- 29.92 in1013.2 mb - 0.00 in0.0 mm 0.00 in0.0 mm
04:45 PM 27.8°F-2.3°C 20.9°F-6.2°C 75% Calm Calm 1.0 mph1.6 kmh 29.92 in1013.2 mb - 0.00 in0.0 mm 0.00 in0.0 mm
04:40 PM 28.0°F-2.2°C 21.1°F-6.1°C 75% 0.1 mph S0.2 kmh S -- 29.92 in1013.2 mb - 0.00 in0.0 mm 0.00 in0.0 mm
04:30 PM 28.3°F-2.1°C 21.1°F-6.1°C 74% 2.8 mph SE4.5 kmh SE 3.0 mph4.8 kmh 29.91 in1012.9 mb - 0.00 in0.0 mm 0.00 in0.0 mm
04:20 PM 29.1°F-1.6°C 21.2°F-6.0°C 72% 2.3 mph S3.7 kmh S 3.0 mph4.8 kmh 29.91 in1012.9 mb - 0.00 in0.0 mm 0.00 in0.0 mm
04:15 PM 29.7°F-1.3°C 21.4°F-5.9°C 71% 2.6 mph SSW4.2 kmh SSW 6.0 mph9.7 kmh 29.91 in1012.9 mb - 0.00 in0.0 mm 0.00 in0.0 mm
04:10 PM 30.0°F-1.1°C 21.8°F-5.7°C 71% 1.6 mph S2.6 kmh S 3.0 mph4.8 kmh 29.91 in1012.9 mb - 0.00 in0.0 mm 0.00 in0.0 mm
04:00 PM 29.8°F-1.2°C 21.5°F-5.8°C 71% 2.2 mph E3.5 kmh E 4.0 mph6.4 kmh 29.91 in1012.9 mb - 0.00 in0.0 mm 0.00 in0.0 mm
03:50 PM 29.6°F-1.3°C 22.0°F-5.6°C 73% 3.5 mph SE5.6 kmh SE 6.0 mph9.7 kmh 29.91 in1012.9 mb - 0.00 in0.0 mm 0.00 in0.0 mm
03:45 PM 29.1°F-1.6°C 21.5°F-5.8°C 73% 1.2 mph SE1.9 kmh SE 2.0 mph3.2 kmh 29.90 in1012.5 mb - 0.00 in0.0 mm 0.00 in0.0 mm
03:40 PM 28.9°F-1.7°C 21.3°F-5.9°C 73% 0.4 mph E0.6 kmh E 2.0 mph3.2 kmh 29.90 in1012.5 mb - 0.00 in0.0 mm 0.00 in0.0 mm
03:30 PM 29.4°F-1.4°C 21.5°F-5.8°C 72% Calm Calm -- 29.90 in1012.5 mb - 0.00 in0.0 mm 0.00 in0.0 mm
03:20 PM 29.7°F-1.3°C 21.8°F-5.7°C 72% 0.9 mph E1.4 kmh E 1.0 mph1.6 kmh 29.90 in1012.5 mb - 0.00 in0.0 mm 0.00 in0.0 mm
03:15 PM 29.7°F-1.3°C 21.8°F-5.7°C 72% 0.5 mph SE0.8 kmh SE 3.0 mph4.8 kmh 29.90 in1012.5 mb - 0.00 in0.0 mm 0.00 in0.0 mm
03:10 PM 29.9°F-1.2°C 21.7°F-5.7°C 71% 1.7 mph ESE2.7 kmh ESE 4.0 mph6.4 kmh 29.90 in1012.5 mb - 0.00 in0.0 mm 0.00 in0.0 mm
03:00 PM 30.6°F-0.8°C 22.0°F-5.6°C 70% 1.3 mph SSE2.1 kmh SSE 2.0 mph3.2 kmh 29.89 in1012.2 mb - 0.00 in0.0 mm 0.00 in0.0 mm
02:50 PM 30.8°F-0.7°C 22.2°F-5.4°C 70% 2.1 mph SE3.4 kmh SE 3.0 mph4.8 kmh 29.89 in1012.2 mb - 0.00 in0.0 mm 0.00 in0.0 mm
02:45 PM 31.0°F-0.6°C 21.6°F-5.8°C 68% 3.3 mph E5.3 kmh E 8.0 mph12.9 kmh 29.89 in1012.2 mb - 0.00 in0.0 mm 0.00 in0.0 mm
02:40 PM 31.6°F-0.2°C 22.2°F-5.4°C 68% 0.6 mph SSE1.0 kmh SSE 1.0 mph1.6 kmh 29.89 in1012.2 mb - 0.00 in0.0 mm 0.00 in0.0 mm
02:30 PM 31.5°F-0.3°C 22.1°F-5.5°C 68% 2.7 mph E4.3 kmh E 7.0 mph11.3 kmh 29.89 in1012.2 mb - 0.00 in0.0 mm 0.00 in0.0 mm
02:20 PM 32.3°F0.2°C 21.9°F-5.6°C 65% 1.9 mph NNE3.1 kmh NNE 4.0 mph6.4 kmh 29.89 in1012.2 mb - 0.00 in0.0 mm 0.00 in0.0 mm
02:15 PM 32.9°F0.5°C 22.8°F-5.1°C 66% 1.9 mph E3.1 kmh E 5.0 mph8.0 kmh 29.89 in1012.2 mb - 0.00 in0.0 mm 0.00 in0.0 mm
02:10 PM 33.0°F0.6°C 22.5°F-5.3°C 65% 0.5 mph SE0.8 kmh SE 2.0 mph3.2 kmh 29.89 in1012.2 mb - 0.00 in0.0 mm 0.00 in0.0 mm
02:00 PM 33.8°F1.0°C 22.9°F-5.1°C 64% 1.3 mph S2.1 kmh S 2.0 mph3.2 kmh 29.89 in1012.2 mb - 0.00 in0.0 mm 0.00 in0.0 mm
01:50 PM 33.7°F0.9°C 23.2°F-4.9°C 65% Calm Calm -- 29.89 in1012.2 mb - 0.00 in0.0 mm 0.00 in0.0 mm
01:45 PM 33.2°F0.7°C 22.7°F-5.2°C 65% 0.7 mph SE1.1 kmh SE 1.0 mph1.6 kmh 29.89 in1012.2 mb - 0.00 in0.0 mm 0.00 in0.0 mm
01:40 PM 33.1°F0.6°C 22.6°F-5.2°C 65% 2.1 mph E3.4 kmh E 4.0 mph6.4 kmh 29.89 in1012.2 mb - 0.00 in0.0 mm 0.00 in0.0 mm
01:30 PM 34.3°F1.3°C 23.7°F-4.6°C 65% 0.9 mph E1.4 kmh E 3.0 mph4.8 kmh 29.89 in1012.2 mb - 0.00 in0.0 mm 0.00 in0.0 mm
01:20 PM 32.5°F0.3°C 23.8°F-4.6°C 70% 0.5 mph S0.8 kmh S 2.0 mph3.2 kmh 29.89 in1012.2 mb - 0.00 in0.0 mm 0.00 in0.0 mm
01:15 PM 31.2°F-0.4°C 22.6°F-5.2°C 70% Calm Calm -- 29.89 in1012.2 mb - 0.00 in0.0 mm 0.00 in0.0 mm
01:10 PM 31.2°F-0.4°C 22.9°F-5.1°C 71% 0.3 mph WNW0.5 kmh WNW 1.0 mph1.6 kmh 29.90 in1012.5 mb - 0.00 in0.0 mm 0.00 in0.0 mm
01:00 PM 29.9°F-1.2°C 23.0°F-5.0°C 75% 1.0 mph S1.6 kmh S 5.0 mph8.0 kmh 29.90 in1012.5 mb - 0.00 in0.0 mm 0.00 in0.0 mm
12:50 PM 28.0°F-2.2°C 22.3°F-5.4°C 79% 1.9 mph SW3.1 kmh SW 4.0 mph6.4 kmh 29.91 in1012.9 mb - 0.00 in0.0 mm 0.00 in0.0 mm
12:45 PM 27.6°F-2.4°C 21.7°F-5.7°C 78% 0.7 mph W1.1 kmh W 1.0 mph1.6 kmh 29.91 in1012.9 mb - 0.00 in0.0 mm 0.00 in0.0 mm
12:40 PM 27.5°F-2.5°C 22.2°F-5.4°C 80% 1.3 mph WSW2.1 kmh WSW 3.0 mph4.8 kmh 29.91 in1012.9 mb - 0.00 in0.0 mm 0.00 in0.0 mm
12:30 PM 26.4°F-3.1°C 22.0°F-5.6°C 83% Calm Calm -- 29.91 in1012.9 mb - 0.00 in0.0 mm 0.00 in0.0 mm
12:20 PM 26.2°F-3.2°C 21.7°F-5.7°C 83% 3.0 mph N4.8 kmh N 4.0 mph6.4 kmh 29.92 in1013.2 mb - 0.00 in0.0 mm 0.00 in0.0 mm
12:15 PM 26.0°F-3.3°C 21.8°F-5.7°C 84% 0.6 mph NW1.0 kmh NW 2.0 mph3.2 kmh 29.92 in1013.2 mb - 0.00 in0.0 mm 0.00 in0.0 mm
12:10 PM 26.0°F-3.3°C 22.1°F-5.5°C 85% 0.7 mph N1.1 kmh N 2.0 mph3.2 kmh 29.93 in1013.5 mb - 0.00 in0.0 mm 0.00 in0.0 mm
12:00 PM 25.9°F-3.4°C 23.1°F-4.9°C 89% Calm Calm -- 29.94 in1013.9 mb - 0.00 in0.0 mm 0.00 in0.0 mm
11:50 AM 24.9°F-3.9°C 22.4°F-5.3°C 90% 0.1 mph ENE0.2 kmh ENE 1.0 mph1.6 kmh 29.94 in1013.9 mb - 0.00 in0.0 mm 0.00 in0.0 mm
11:45 AM 24.3°F-4.3°C 21.8°F-5.7°C 90% Calm Calm -- 29.95 in1014.2 mb - 0.00 in0.0 mm 0.00 in0.0 mm
11:40 AM 23.9°F-4.5°C 21.1°F-6.1°C 89% 0.1 mph ENE0.2 kmh ENE 1.0 mph1.6 kmh 29.95 in1014.2 mb - 0.00 in0.0 mm 0.00 in0.0 mm
11:30 AM 24.1°F-4.4°C 21.6°F-5.8°C 90% 2.4 mph SSW3.9 kmh SSW 4.0 mph6.4 kmh 29.95 in1014.2 mb - 0.00 in0.0 mm 0.00 in0.0 mm
11:20 AM 24.2°F-4.3°C 22.0°F-5.6°C 91% 0.4 mph W0.6 kmh W 2.0 mph3.2 kmh 29.96 in1014.6 mb - 0.00 in0.0 mm 0.00 in0.0 mm
11:15 AM 24.0°F-4.4°C 21.8°F-5.7°C 91% Calm Calm -- 29.96 in1014.6 mb - 0.00 in0.0 mm 0.00 in0.0 mm
11:10 AM 24.2°F-4.3°C 22.0°F-5.6°C 91% 0.2 mph WSW0.3 kmh WSW 1.0 mph1.6 kmh 29.96 in1014.6 mb - 0.00 in0.0 mm 0.00 in0.0 mm
11:00 AM 24.4°F-4.2°C 22.4°F-5.3°C 92% 0.1 mph WSW0.2 kmh WSW 1.0 mph1.6 kmh 29.97 in1014.9 mb - 0.00 in0.0 mm 0.00 in0.0 mm
10:50 AM 24.3°F-4.3°C 22.3°F-5.4°C 92% Calm Calm -- 29.97 in1014.9 mb - 0.00 in0.0 mm 0.00 in0.0 mm
10:45 AM 24.2°F-4.3°C 22.2°F-5.4°C 92% Calm Calm 1.0 mph1.6 kmh 29.97 in1014.9 mb - 0.00 in0.0 mm 0.00 in0.0 mm
10:40 AM 24.0°F-4.4°C 22.1°F-5.5°C 92% Calm Calm -- 29.98 in1015.2 mb - 0.00 in0.0 mm 0.00 in0.0 mm
10:30 AM 23.8°F-4.6°C 21.8°F-5.7°C 92% Calm Calm -- 29.98 in1015.2 mb - 0.00 in0.0 mm 0.00 in0.0 mm
10:20 AM 23.5°F-4.7°C 21.5°F-5.8°C 92% 0.2 mph SE0.3 kmh SE 2.0 mph3.2 kmh 29.99 in1015.6 mb - 0.00 in0.0 mm 0.00 in0.0 mm
10:15 AM 23.8°F-4.6°C 21.8°F-5.7°C 92% 2.1 mph SSW3.4 kmh SSW 3.0 mph4.8 kmh 29.99 in1015.6 mb - 0.00 in0.0 mm 0.00 in0.0 mm
10:10 AM 23.8°F-4.6°C 22.1°F-5.5°C 93% 1.4 mph ESE2.3 kmh ESE 3.0 mph4.8 kmh 29.99 in1015.6 mb - 0.00 in0.0 mm 0.00 in0.0 mm
10:00 AM 23.8°F-4.6°C 22.0°F-5.6°C 93% 2.2 mph SSW3.5 kmh SSW 3.0 mph4.8 kmh 29.99 in1015.6 mb - 0.00 in0.0 mm 0.00 in0.0 mm
09:50 AM 23.1°F-4.9°C 21.4°F-5.9°C 93% 0.5 mph NE0.8 kmh NE 5.0 mph8.0 kmh 29.99 in1015.6 mb - 0.00 in0.0 mm 0.00 in0.0 mm
09:45 AM 22.8°F-5.1°C 20.8°F-6.2°C 92% 0.3 mph WSW0.5 kmh WSW 1.0 mph1.6 kmh 29.99 in1015.6 mb - 0.00 in0.0 mm 0.00 in0.0 mm
09:40 AM 22.8°F-5.1°C 21.1°F-6.1°C 93% 0.6 mph SW1.0 kmh SW 2.0 mph3.2 kmh 29.99 in1015.6 mb - 0.00 in0.0 mm 0.00 in0.0 mm
09:30 AM 22.5°F-5.3°C 20.8°F-6.2°C 93% 1.5 mph SSW2.4 kmh SSW 3.0 mph4.8 kmh 29.99 in1015.6 mb - 0.00 in0.0 mm 0.00 in0.0 mm
09:20 AM 22.4°F-5.3°C 20.7°F-6.3°C 93% 0.6 mph SW1.0 kmh SW 2.0 mph3.2 kmh 29.99 in1015.6 mb - 0.00 in0.0 mm 0.00 in0.0 mm
09:15 AM 22.4°F-5.3°C 20.7°F-6.3°C 93% 2.5 mph SE4.0 kmh SE 3.0 mph4.8 kmh 29.99 in1015.6 mb - 0.00 in0.0 mm 0.00 in0.0 mm
09:10 AM 22.5°F-5.3°C 20.8°F-6.2°C 93% 0.8 mph E1.3 kmh E 4.0 mph6.4 kmh 29.99 in1015.6 mb - 0.00 in0.0 mm 0.00 in0.0 mm
09:00 AM 22.2°F-5.4°C 20.5°F-6.4°C 93% 1.1 mph SSE1.8 kmh SSE 3.0 mph4.8 kmh 29.99 in1015.6 mb - 0.00 in0.0 mm 0.00 in0.0 mm
08:50 AM 22.1°F-5.5°C 20.2°F-6.6°C 92% 3.4 mph S5.5 kmh S 6.0 mph9.7 kmh 29.99 in1015.6 mb - 0.00 in0.0 mm 0.00 in0.0 mm
08:45 AM 22.1°F-5.5°C 20.1°F-6.6°C 92% 1.9 mph SSE3.1 kmh SSE 3.0 mph4.8 kmh 29.99 in1015.6 mb - 0.00 in0.0 mm 0.00 in0.0 mm
08:40 AM 22.2°F-5.4°C 20.5°F-6.4°C 93% 2.8 mph SSW4.5 kmh SSW 4.0 mph6.4 kmh 29.99 in1015.6 mb - 0.00 in0.0 mm 0.00 in0.0 mm
08:30 AM 21.8°F-5.7°C 19.8°F-6.8°C 92% 2.4 mph SSW3.9 kmh SSW 2.0 mph3.2 kmh 29.99 in1015.6 mb - 0.00 in0.0 mm 0.00 in0.0 mm
08:20 AM 21.4°F-5.9°C 19.4°F-7.0°C 92% Calm Calm 1.0 mph1.6 kmh 29.99 in1015.6 mb - 0.00 in0.0 mm 0.00 in0.0 mm
08:15 AM 21.2°F-6.0°C 19.2°F-7.1°C 92% 0.1 mph SSW0.2 kmh SSW -- 29.99 in1015.6 mb - 0.00 in0.0 mm 0.00 in0.0 mm
08:10 AM 20.9°F-6.2°C 19.0°F-7.2°C 92% Calm Calm -- 29.99 in1015.6 mb - 0.00 in0.0 mm 0.00 in0.0 mm
08:00 AM 20.8°F-6.2°C 18.8°F-7.3°C 92% Calm Calm -- 29.99 in1015.6 mb - 0.00 in0.0 mm 0.00 in0.0 mm
07:50 AM 20.5°F-6.4°C 18.5°F-7.5°C 92% Calm Calm -- 29.99 in1015.6 mb - 0.00 in0.0 mm 0.00 in0.0 mm
07:45 AM 20.3°F-6.5°C 18.1°F-7.7°C 91% Calm Calm -- 29.99 in1015.6 mb - 0.00 in0.0 mm 0.00 in0.0 mm
07:40 AM 20.1°F-6.6°C 17.9°F-7.8°C 91% Calm Calm -- 29.99 in1015.6 mb - 0.00 in0.0 mm 0.00 in0.0 mm
07:30 AM 19.9°F-6.7°C 17.7°F-7.9°C 91% Calm Calm -- 29.99 in1015.6 mb - 0.00 in0.0 mm 0.00 in0.0 mm
07:20 AM 19.6°F-6.9°C 17.4°F-8.1°C 91% Calm Calm -- 29.98 in1015.2 mb - 0.00 in0.0 mm 0.00 in0.0 mm
07:15 AM 19.5°F-6.9°C 17.3°F-8.2°C 91% Calm Calm -- 29.98 in1015.2 mb - 0.00 in0.0 mm 0.00 in0.0 mm
07:10 AM 19.4°F-7.0°C 17.2°F-8.2°C 91% Calm Calm -- 29.98 in1015.2 mb - 0.00 in0.0 mm 0.00 in0.0 mm
07:00 AM 19.1°F-7.2°C 16.9°F-8.4°C 91% Calm Calm -- 29.98 in1015.2 mb - 0.00 in0.0 mm 0.00 in0.0 mm
06:50 AM 19.0°F-7.2°C 16.8°F-8.4°C 91% Calm Calm -- 29.98 in1015.2 mb - 0.00 in0.0 mm 0.00 in0.0 mm
06:45 AM 19.0°F-7.2°C 16.8°F-8.4°C 91% 0.2 mph SSW0.3 kmh SSW -- 29.97 in1014.9 mb - 0.00 in0.0 mm 0.00 in0.0 mm
06:40 AM 19.1°F-7.2°C 16.9°F-8.4°C 91% 1.1 mph SSW1.8 kmh SSW 2.0 mph3.2 kmh 29.97 in1014.9 mb - 0.00 in0.0 mm 0.00 in0.0 mm
06:30 AM 19.1°F-7.2°C 16.7°F-8.5°C 90% 0.6 mph S1.0 kmh S -- 29.97 in1014.9 mb - 0.00 in0.0 mm 0.00 in0.0 mm
06:20 AM 19.5°F-6.9°C 16.7°F-8.5°C 89% 0.5 mph E0.8 kmh E 2.0 mph3.2 kmh 29.96 in1014.6 mb - 0.00 in0.0 mm 0.00 in0.0 mm
06:15 AM 19.7°F-6.8°C 17.0°F-8.3°C 89% 1.1 mph E1.8 kmh E 2.0 mph3.2 kmh 29.96 in1014.6 mb - 0.00 in0.0 mm 0.00 in0.0 mm
06:10 AM 19.9°F-6.7°C 17.2°F-8.2°C 89% 0.2 mph ESE0.3 kmh ESE 2.0 mph3.2 kmh 29.95 in1014.2 mb - 0.00 in0.0 mm 0.00 in0.0 mm
06:00 AM 20.1°F-6.6°C 17.4°F-8.1°C 89% Calm Calm 1.0 mph1.6 kmh 29.96 in1014.6 mb - 0.00 in0.0 mm 0.00 in0.0 mm
05:50 AM 20.2°F-6.6°C 17.5°F-8.1°C 89% Calm Calm 1.0 mph1.6 kmh 29.95 in1014.2 mb - 0.00 in0.0 mm 0.00 in0.0 mm
05:45 AM 20.3°F-6.5°C 17.6°F-8.0°C 89% 0.7 mph E1.1 kmh E 1.0 mph1.6 kmh 29.95 in1014.2 mb - 0.00 in0.0 mm 0.00 in0.0 mm
05:40 AM 20.4°F-6.4°C 17.4°F-8.1°C 88% 0.6 mph ESE1.0 kmh ESE 3.0 mph4.8 kmh 29.95 in1014.2 mb - 0.00 in0.0 mm 0.00 in0.0 mm
05:30 AM 20.5°F-6.4°C 17.5°F-8.1°C 88% 0.1 mph E0.2 kmh E -- 29.94 in1013.9 mb - 0.00 in0.0 mm 0.00 in0.0 mm
05:20 AM 20.5°F-6.4°C 17.5°F-8.1°C 88% 0.9 mph E1.4 kmh E 2.0 mph3.2 kmh 29.94 in1013.9 mb - 0.00 in0.0 mm 0.00 in0.0 mm
05:15 AM 20.5°F-6.4°C 17.2°F-8.2°C 87% 0.2 mph S0.3 kmh S -- 29.94 in1013.9 mb - 0.00 in0.0 mm 0.00 in0.0 mm
05:10 AM 20.6°F-6.3°C 17.3°F-8.2°C 87% 0.2 mph SE0.3 kmh SE 1.0 mph1.6 kmh 29.93 in1013.5 mb - 0.00 in0.0 mm 0.00 in0.0 mm
05:00 AM 20.8°F-6.2°C 17.6°F-8.0°C 87% 0.4 mph ESE0.6 kmh ESE 1.0 mph1.6 kmh 29.93 in1013.5 mb - 0.00 in0.0 mm 0.00 in0.0 mm
04:50 AM 21.1°F-6.1°C 17.6°F-8.0°C 86% 0.7 mph E1.1 kmh E 1.0 mph1.6 kmh 29.92 in1013.2 mb - 0.00 in0.0 mm 0.00 in0.0 mm
04:45 AM 21.3°F-5.9°C 18.0°F-7.8°C 87% Calm Calm 1.0 mph1.6 kmh 29.91 in1012.9 mb - 0.00 in0.0 mm 0.00 in0.0 mm
04:40 AM 21.4°F-5.9°C 17.9°F-7.8°C 86% Calm Calm -- 29.91 in1012.9 mb - 0.00 in0.0 mm 0.00 in0.0 mm
04:30 AM 21.9°F-5.6°C 18.6°F-7.4°C 87% Calm Calm -- 29.91 in1012.9 mb - 0.00 in0.0 mm 0.00 in0.0 mm
04:20 AM 21.9°F-5.6°C 18.6°F-7.4°C 87% 0.1 mph SW0.2 kmh SW 1.0 mph1.6 kmh 29.91 in1012.9 mb - 0.00 in0.0 mm 0.00 in0.0 mm
04:15 AM 21.8°F-5.7°C 18.5°F-7.5°C 87% 0.3 mph SW0.5 kmh SW 2.0 mph3.2 kmh 29.91 in1012.9 mb - 0.00 in0.0 mm 0.00 in0.0 mm
04:10 AM 21.7°F-5.7°C 18.4°F-7.6°C 87% 0.7 mph SW1.1 kmh SW 2.0 mph3.2 kmh 29.91 in1012.9 mb - 0.00 in0.0 mm 0.00 in0.0 mm
04:00 AM 21.8°F-5.7°C 18.3°F-7.6°C 86% 1.0 mph SW1.6 kmh SW 1.0 mph1.6 kmh 29.91 in1012.9 mb - 0.00 in0.0 mm 0.00 in0.0 mm
03:50 AM 22.2°F-5.4°C 18.7°F-7.4°C 86% 0.1 mph W0.2 kmh W 1.0 mph1.6 kmh 29.90 in1012.5 mb - 0.00 in0.0 mm 0.00 in0.0 mm
03:45 AM 22.3°F-5.4°C 19.3°F-7.1°C 88% 0.7 mph WNW1.1 kmh WNW 2.0 mph3.2 kmh 29.90 in1012.5 mb - 0.00 in0.0 mm 0.00 in0.0 mm
03:40 AM 22.2°F-5.4°C 18.7°F-7.4°C 86% 2.6 mph W4.2 kmh W 3.0 mph4.8 kmh 29.89 in1012.2 mb - 0.00 in0.0 mm 0.00 in0.0 mm
03:30 AM 22.4°F-5.3°C 18.8°F-7.3°C 86% 1.7 mph W2.7 kmh W 3.0 mph4.8 kmh 29.89 in1012.2 mb - 0.00 in0.0 mm 0.00 in0.0 mm
03:20 AM 22.5°F-5.3°C 18.9°F-7.3°C 86% 5.3 mph NW8.5 kmh NW 9.0 mph14.5 kmh 29.89 in1012.2 mb - 0.00 in0.0 mm 0.00 in0.0 mm
03:15 AM 22.6°F-5.2°C 19.0°F-7.2°C 86% 4.8 mph NNW7.7 kmh NNW 9.0 mph14.5 kmh 29.89 in1012.2 mb - 0.00 in0.0 mm 0.00 in0.0 mm
03:10 AM 22.6°F-5.2°C 19.0°F-7.2°C 86% 4.4 mph NNE7.1 kmh NNE 6.0 mph9.7 kmh 29.89 in1012.2 mb - 0.00 in0.0 mm 0.00 in0.0 mm
03:00 AM 22.8°F-5.1°C 18.9°F-7.3°C 85% 5.1 mph N8.2 kmh N 7.0 mph11.3 kmh 29.88 in1011.9 mb - 0.00 in0.0 mm 0.00 in0.0 mm
02:50 AM 23.1°F-4.9°C 19.3°F-7.1°C 85% 6.5 mph N10.5 kmh N 10.0 mph16.1 kmh 29.88 in1011.9 mb - 0.00 in0.0 mm 0.00 in0.0 mm
02:45 AM 23.1°F-4.9°C 19.3°F-7.1°C 85% 6.7 mph NE10.8 kmh NE 11.0 mph17.7 kmh 29.88 in1011.9 mb - 0.00 in0.0 mm 0.00 in0.0 mm
02:40 AM 23.1°F-4.9°C 19.3°F-7.1°C 85% 6.3 mph NNE10.1 kmh NNE 10.0 mph16.1 kmh 29.88 in1011.9 mb - 0.00 in0.0 mm 0.00 in0.0 mm
02:30 AM 23.0°F-5.0°C 19.2°F-7.1°C 85% 7.1 mph NNW11.4 kmh NNW 9.0 mph14.5 kmh 29.88 in1011.9 mb - 0.00 in0.0 mm 0.00 in0.0 mm
02:20 AM 23.1°F-4.9°C 19.0°F-7.2°C 84% 7.1 mph NNE11.4 kmh NNE 9.0 mph14.5 kmh 29.88 in1011.9 mb - 0.00 in0.0 mm 0.00 in0.0 mm
02:15 AM 23.3°F-4.8°C 18.9°F-7.3°C 83% 4.9 mph NNE7.9 kmh NNE 11.0 mph17.7 kmh 29.88 in1011.9 mb - 0.00 in0.0 mm 0.00 in0.0 mm
02:10 AM 23.8°F-4.6°C 18.8°F-7.3°C 81% 6.4 mph NNE10.3 kmh NNE 10.0 mph16.1 kmh 29.88 in1011.9 mb - 0.00 in0.0 mm 0.00 in0.0 mm
02:00 AM 24.5°F-4.2°C 18.6°F-7.4°C 78% 3.4 mph NW5.5 kmh NW 4.0 mph6.4 kmh 29.88 in1011.9 mb - 0.00 in0.0 mm 0.00 in0.0 mm
01:50 AM 24.4°F-4.2°C 18.8°F-7.3°C 79% 1.7 mph NW2.7 kmh NW 3.0 mph4.8 kmh 29.88 in1011.9 mb - 0.00 in0.0 mm 0.00 in0.0 mm
01:45 AM 24.0°F-4.4°C 18.1°F-7.7°C 78% 2.2 mph N3.5 kmh N 3.0 mph4.8 kmh 29.87 in1011.5 mb - 0.00 in0.0 mm 0.00 in0.0 mm
01:40 AM 24.1°F-4.4°C 17.9°F-7.8°C 77% 1.4 mph NNE2.3 kmh NNE 2.0 mph3.2 kmh 29.87 in1011.5 mb - 0.00 in0.0 mm 0.00 in0.0 mm
01:30 AM 25.0°F-3.9°C 18.8°F-7.3°C 77% Calm Calm -- 29.87 in1011.5 mb - 0.00 in0.0 mm 0.00 in0.0 mm
01:20 AM 25.4°F-3.7°C 20.4°F-6.4°C 81% Calm Calm -- 29.87 in1011.5 mb - 0.00 in0.0 mm 0.00 in0.0 mm
01:15 AM 25.2°F-3.8°C 19.0°F-7.2°C 77% 1.4 mph W2.3 kmh W 2.0 mph3.2 kmh 29.87 in1011.5 mb - 0.00 in0.0 mm 0.00 in0.0 mm
01:10 AM 25.2°F-3.8°C 19.3°F-7.1°C 78% 0.4 mph WNW0.6 kmh WNW 3.0 mph4.8 kmh 29.86 in1011.2 mb - 0.00 in0.0 mm 0.00 in0.0 mm
01:00 AM 25.1°F-3.8°C 18.9°F-7.3°C 77% Calm Calm 1.0 mph1.6 kmh 29.86 in1011.2 mb - 0.00 in0.0 mm 0.00 in0.0 mm
12:50 AM 25.7°F-3.5°C 19.2°F-7.1°C 76% 0.2 mph NW0.3 kmh NW 1.0 mph1.6 kmh 29.86 in1011.2 mb - 0.00 in0.0 mm 0.00 in0.0 mm
12:45 AM 25.9°F-3.4°C 19.4°F-7.0°C 76% 0.7 mph WNW1.1 kmh WNW 1.0 mph1.6 kmh 29.86 in1011.2 mb - 0.00 in0.0 mm 0.00 in0.0 mm
12:40 AM 26.1°F-3.3°C 19.5°F-6.9°C 76% 0.3 mph SSW0.5 kmh SSW 1.0 mph1.6 kmh 29.86 in1011.2 mb - 0.00 in0.0 mm 0.00 in0.0 mm
12:30 AM 26.3°F-3.2°C 19.8°F-6.8°C 76% 0.7 mph SW1.1 kmh SW 2.0 mph3.2 kmh 29.86 in1011.2 mb - 0.00 in0.0 mm 0.00 in0.0 mm
12:20 AM 26.0°F-3.3°C 19.8°F-6.8°C 77% 0.5 mph SW0.8 kmh SW 1.0 mph1.6 kmh 29.87 in1011.5 mb - 0.00 in0.0 mm 0.00 in0.0 mm
12:15 AM 26.0°F-3.3°C 19.8°F-6.8°C 77% 0.1 mph NE0.2 kmh NE -- 29.87 in1011.5 mb - 0.00 in0.0 mm 0.00 in0.0 mm
12:10 AM 25.9°F-3.4°C 20.0°F-6.7°C 78% Calm Calm -- 29.87 in1011.5 mb - 0.00 in0.0 mm 0.00 in0.0 mm
12:00 AM 26.0°F-3.3°C 20.1°F-6.6°C 78% 1.6 mph NW2.6 kmh NW 3.0 mph4.8 kmh 29.87 in1011.5 mb - 0.00 in0.0 mm 0.00 in0.0 mm